sensor_id;sensor_type;location;lat;lon;timestamp;temperature;humidity
41756;DHT22;27435;48.480;9.258;2023-01-13T00:01:19;10.20;87.30
41756;DHT22;27435;48.480;9.258;2023-01-13T00:03:45;10.10;87.30
41756;DHT22;27435;48.480;9.258;2023-01-13T00:06:16;10.10;87.40
41756;DHT22;27435;48.480;9.258;2023-01-13T00:08:42;10.10;87.60
41756;DHT22;27435;48.480;9.258;2023-01-13T00:11:09;10.10;87.70
41756;DHT22;27435;48.480;9.258;2023-01-13T00:13:35;10.00;88.10
41756;DHT22;27435;48.480;9.258;2023-01-13T00:16:08;10.10;87.90
41756;DHT22;27435;48.480;9.258;2023-01-13T00:18:34;10.00;88.10
41756;DHT22;27435;48.480;9.258;2023-01-13T00:21:04;10.00;88.20
41756;DHT22;27435;48.480;9.258;2023-01-13T00:23:32;10.10;88.00
41756;DHT22;27435;48.480;9.258;2023-01-13T00:26:00;10.10;88.10
41756;DHT22;27435;48.480;9.258;2023-01-13T00:28:27;10.00;88.10
41756;DHT22;27435;48.480;9.258;2023-01-13T00:30:53;10.10;88.00
41756;DHT22;27435;48.480;9.258;2023-01-13T00:33:22;10.10;88.20
41756;DHT22;27435;48.480;9.258;2023-01-13T00:35:58;10.10;88.10
41756;DHT22;27435;48.480;9.258;2023-01-13T00:38:24;10.10;88.20
41756;DHT22;27435;48.480;9.258;2023-01-13T00:41:05;10.10;88.10
41756;DHT22;27435;48.480;9.258;2023-01-13T00:43:32;10.10;87.60
41756;DHT22;27435;48.480;9.258;2023-01-13T00:45:58;10.10;87.50
41756;DHT22;27435;48.480;9.258;2023-01-13T00:48:25;10.20;87.30
41756;DHT22;27435;48.480;9.258;2023-01-13T00:50:59;10.20;87.50
41756;DHT22;27435;48.480;9.258;2023-01-13T00:53:26;10.20;87.40
41756;DHT22;27435;48.480;9.258;2023-01-13T00:56:02;10.20;87.30
41756;DHT22;27435;48.480;9.258;2023-01-13T00:58:31;10.20;87.30
41756;DHT22;27435;48.480;9.258;2023-01-13T01:01:01;10.20;87.30
41756;DHT22;27435;48.480;9.258;2023-01-13T01:03:27;10.20;87.10
41756;DHT22;27435;48.480;9.258;2023-01-13T01:05:54;10.20;87.20
41756;DHT22;27435;48.480;9.258;2023-01-13T01:08:19;10.20;87.40
41756;DHT22;27435;48.480;9.258;2023-01-13T01:10:45;10.30;87.50
41756;DHT22;27435;48.480;9.258;2023-01-13T01:13:10;10.30;87.50
41756;DHT22;27435;48.480;9.258;2023-01-13T01:15:42;10.20;87.50
41756;DHT22;27435;48.480;9.258;2023-01-13T01:18:07;10.20;87.80
41756;DHT22;27435;48.480;9.258;2023-01-13T01:20:33;10.20;87.80
41756;DHT22;27435;48.480;9.258;2023-01-13T01:22:59;10.20;87.80
41756;DHT22;27435;48.480;9.258;2023-01-13T01:25:25;10.20;87.80
41756;DHT22;27435;48.480;9.258;2023-01-13T01:27:50;10.20;87.90
41756;DHT22;27435;48.480;9.258;2023-01-13T01:30:16;10.20;88.00
41756;DHT22;27435;48.480;9.258;2023-01-13T01:32:42;10.20;87.90
41756;DHT22;27435;48.480;9.258;2023-01-13T01:35:07;10.20;88.20
41756;DHT22;27435;48.480;9.258;2023-01-13T01:37:33;10.20;88.40
41756;DHT22;27435;48.480;9.258;2023-01-13T01:39:58;10.30;88.60
41756;DHT22;27435;48.480;9.258;2023-01-13T01:42:26;10.20;88.70
41756;DHT22;27435;48.480;9.258;2023-01-13T01:45:17;10.20;89.00
41756;DHT22;27435;48.480;9.258;2023-01-13T01:47:46;10.20;88.80
41756;DHT22;27435;48.480;9.258;2023-01-13T01:50:12;10.20;88.80
41756;DHT22;27435;48.480;9.258;2023-01-13T01:52:42;10.10;89.00
41756;DHT22;27435;48.480;9.258;2023-01-13T01:55:23;10.20;88.90
41756;DHT22;27435;48.480;9.258;2023-01-13T01:57:52;10.20;88.70
41756;DHT22;27435;48.480;9.258;2023-01-13T02:00:19;10.10;89.00
41756;DHT22;27435;48.480;9.258;2023-01-13T02:02:46;10.20;88.70
41756;DHT22;27435;48.480;9.258;2023-01-13T02:05:14;10.20;89.00
41756;DHT22;27435;48.480;9.258;2023-01-13T02:07:42;10.20;88.70
41756;DHT22;27435;48.480;9.258;2023-01-13T02:10:11;10.10;88.90
41756;DHT22;27435;48.480;9.258;2023-01-13T02:12:37;10.10;88.70
41756;DHT22;27435;48.480;9.258;2023-01-13T02:23:34;10.20;88.80
41756;DHT22;27435;48.480;9.258;2023-01-13T02:26:37;10.10;88.90
41756;DHT22;27435;48.480;9.258;2023-01-13T02:32:43;10.20;88.90
41756;DHT22;27435;48.480;9.258;2023-01-13T02:35:26;10.20;89.00
41756;DHT22;27435;48.480;9.258;2023-01-13T02:37:53;10.10;89.20
41756;DHT22;27435;48.480;9.258;2023-01-13T02:40:27;10.20;89.60
41756;DHT22;27435;48.480;9.258;2023-01-13T02:43:38;10.20;89.30
41756;DHT22;27435;48.480;9.258;2023-01-13T02:46:30;10.20;90.00
41756;DHT22;27435;48.480;9.258;2023-01-13T02:49:01;10.10;90.50
41756;DHT22;27435;48.480;9.258;2023-01-13T02:51:29;10.10;90.90
41756;DHT22;27435;48.480;9.258;2023-01-13T02:54:01;10.10;89.70
41756;DHT22;27435;48.480;9.258;2023-01-13T02:56:28;10.10;90.00
41756;DHT22;27435;48.480;9.258;2023-01-13T02:58:55;10.10;89.80
41756;DHT22;27435;48.480;9.258;2023-01-13T03:01:23;10.10;90.00
41756;DHT22;27435;48.480;9.258;2023-01-13T03:03:49;10.20;89.60
41756;DHT22;27435;48.480;9.258;2023-01-13T03:06:47;10.20;89.50
41756;DHT22;27435;48.480;9.258;2023-01-13T03:09:38;10.10;90.80
41756;DHT22;27435;48.480;9.258;2023-01-13T03:12:08;10.00;92.50
41756;DHT22;27435;48.480;9.258;2023-01-13T03:17:38;10.00;92.80
41756;DHT22;27435;48.480;9.258;2023-01-13T03:20:18;10.00;92.90
41756;DHT22;27435;48.480;9.258;2023-01-13T03:25:21;9.90;92.80
41756;DHT22;27435;48.480;9.258;2023-01-13T03:28:04;9.90;93.10
41756;DHT22;27435;48.480;9.258;2023-01-13T03:30:49;9.90;92.30
41756;DHT22;27435;48.480;9.258;2023-01-13T03:33:19;9.90;92.50
41756;DHT22;27435;48.480;9.258;2023-01-13T03:35:50;9.90;92.40
41756;DHT22;27435;48.480;9.258;2023-01-13T03:38:28;9.90;92.10
41756;DHT22;27435;48.480;9.258;2023-01-13T03:40:58;10.00;92.00
41756;DHT22;27435;48.480;9.258;2023-01-13T03:43:33;10.00;91.90
41756;DHT22;27435;48.480;9.258;2023-01-13T03:46:28;10.00;91.60
41756;DHT22;27435;48.480;9.258;2023-01-13T03:48:56;10.00;91.60
41756;DHT22;27435;48.480;9.258;2023-01-13T03:51:24;10.00;91.70
41756;DHT22;27435;48.480;9.258;2023-01-13T03:53:56;10.00;91.50
41756;DHT22;27435;48.480;9.258;2023-01-13T03:56:45;10.10;91.30
41756;DHT22;27435;48.480;9.258;2023-01-13T03:59:16;10.00;91.30
41756;DHT22;27435;48.480;9.258;2023-01-13T04:02:00;10.10;91.30
41756;DHT22;27435;48.480;9.258;2023-01-13T04:04:41;10.10;91.30
41756;DHT22;27435;48.480;9.258;2023-01-13T04:09:59;10.20;91.10
41756;DHT22;27435;48.480;9.258;2023-01-13T04:12:32;10.00;91.20
41756;DHT22;27435;48.480;9.258;2023-01-13T04:15:17;9.90;91.80
41756;DHT22;27435;48.480;9.258;2023-01-13T04:17:44;10.00;91.40
41756;DHT22;27435;48.480;9.258;2023-01-13T04:20:10;9.90;91.70
41756;DHT22;27435;48.480;9.258;2023-01-13T04:22:36;9.90;91.80
41756;DHT22;27435;48.480;9.258;2023-01-13T04:25:01;9.90;91.80
41756;DHT22;27435;48.480;9.258;2023-01-13T04:27:27;9.90;91.70
41756;DHT22;27435;48.480;9.258;2023-01-13T04:29:53;10.00;91.30
41756;DHT22;27435;48.480;9.258;2023-01-13T04:32:18;10.00;91.10
41756;DHT22;27435;48.480;9.258;2023-01-13T04:34:44;10.00;91.00
41756;DHT22;27435;48.480;9.258;2023-01-13T04:37:10;9.90;91.20
41756;DHT22;27435;48.480;9.258;2023-01-13T04:39:35;10.00;91.00
41756;DHT22;27435;48.480;9.258;2023-01-13T04:42:01;10.00;91.10
41756;DHT22;27435;48.480;9.258;2023-01-13T04:44:28;10.00;90.90
41756;DHT22;27435;48.480;9.258;2023-01-13T04:46:56;10.10;90.80
41756;DHT22;27435;48.480;9.258;2023-01-13T04:49:23;10.10;90.70
41756;DHT22;27435;48.480;9.258;2023-01-13T04:51:48;10.00;90.80
41756;DHT22;27435;48.480;9.258;2023-01-13T04:54:14;10.10;90.60
41756;DHT22;27435;48.480;9.258;2023-01-13T04:56:40;10.10;90.60
41756;DHT22;27435;48.480;9.258;2023-01-13T04:59:07;10.10;90.60
41756;DHT22;27435;48.480;9.258;2023-01-13T05:01:33;10.10;90.60
41756;DHT22;27435;48.480;9.258;2023-01-13T05:03:58;10.10;90.60
41756;DHT22;27435;48.480;9.258;2023-01-13T05:06:24;10.00;90.70
41756;DHT22;27435;48.480;9.258;2023-01-13T05:08:49;10.00;90.70
41756;DHT22;27435;48.480;9.258;2023-01-13T05:11:15;10.10;90.70
41756;DHT22;27435;48.480;9.258;2023-01-13T05:13:59;10.10;90.70
41756;DHT22;27435;48.480;9.258;2023-01-13T05:16:50;10.00;90.80
41756;DHT22;27435;48.480;9.258;2023-01-13T05:19:27;10.10;90.80
41756;DHT22;27435;48.480;9.258;2023-01-13T05:21:53;10.10;90.90
41756;DHT22;27435;48.480;9.258;2023-01-13T05:24:38;10.10;90.80
41756;DHT22;27435;48.480;9.258;2023-01-13T05:27:22;10.00;91.00
41756;DHT22;27435;48.480;9.258;2023-01-13T05:29:47;10.10;91.10
41756;DHT22;27435;48.480;9.258;2023-01-13T05:32:13;10.00;91.30
41756;DHT22;27435;48.480;9.258;2023-01-13T05:34:39;10.00;91.10
41756;DHT22;27435;48.480;9.258;2023-01-13T05:37:04;10.10;91.10
41756;DHT22;27435;48.480;9.258;2023-01-13T05:39:33;10.10;91.20
41756;DHT22;27435;48.480;9.258;2023-01-13T05:42:19;10.10;91.30
41756;DHT22;27435;48.480;9.258;2023-01-13T05:45:03;10.20;91.00
41756;DHT22;27435;48.480;9.258;2023-01-13T05:47:30;10.10;91.20
41756;DHT22;27435;48.480;9.258;2023-01-13T05:49:56;10.10;91.50
41756;DHT22;27435;48.480;9.258;2023-01-13T05:52:21;10.10;91.30
41756;DHT22;27435;48.480;9.258;2023-01-13T05:54:47;10.20;91.40
41756;DHT22;27435;48.480;9.258;2023-01-13T05:57:13;10.10;91.40
41756;DHT22;27435;48.480;9.258;2023-01-13T05:59:38;10.10;91.60
41756;DHT22;27435;48.480;9.258;2023-01-13T06:02:04;10.10;91.70
41756;DHT22;27435;48.480;9.258;2023-01-13T06:04:30;10.10;91.80
41756;DHT22;27435;48.480;9.258;2023-01-13T06:06:55;10.10;91.70
41756;DHT22;27435;48.480;9.258;2023-01-13T06:09:21;10.10;92.20
41756;DHT22;27435;48.480;9.258;2023-01-13T06:11:47;10.00;92.00
41756;DHT22;27435;48.480;9.258;2023-01-13T06:14:13;10.00;92.40
41756;DHT22;27435;48.480;9.258;2023-01-13T06:16:39;10.10;92.00
41756;DHT22;27435;48.480;9.258;2023-01-13T06:19:04;10.10;92.00
41756;DHT22;27435;48.480;9.258;2023-01-13T06:21:36;10.00;92.20
41756;DHT22;27435;48.480;9.258;2023-01-13T06:24:02;10.10;92.30
41756;DHT22;27435;48.480;9.258;2023-01-13T06:26:29;10.20;92.30
41756;DHT22;27435;48.480;9.258;2023-01-13T06:28:56;10.30;91.70
41756;DHT22;27435;48.480;9.258;2023-01-13T06:31:22;10.20;92.00
41756;DHT22;27435;48.480;9.258;2023-01-13T06:33:51;10.10;92.30
41756;DHT22;27435;48.480;9.258;2023-01-13T06:36:36;10.00;92.70
41756;DHT22;27435;48.480;9.258;2023-01-13T06:39:03;10.10;92.60
41756;DHT22;27435;48.480;9.258;2023-01-13T06:41:31;10.10;92.80
41756;DHT22;27435;48.480;9.258;2023-01-13T06:44:17;10.20;92.50
41756;DHT22;27435;48.480;9.258;2023-01-13T06:46:43;10.20;92.40
41756;DHT22;27435;48.480;9.258;2023-01-13T06:49:08;10.10;92.70
41756;DHT22;27435;48.480;9.258;2023-01-13T06:51:34;10.10;92.70
41756;DHT22;27435;48.480;9.258;2023-01-13T06:54:00;10.10;92.70
41756;DHT22;27435;48.480;9.258;2023-01-13T06:56:25;10.10;92.70
41756;DHT22;27435;48.480;9.258;2023-01-13T06:58:51;10.10;92.50
41756;DHT22;27435;48.480;9.258;2023-01-13T07:01:16;10.10;92.30
41756;DHT22;27435;48.480;9.258;2023-01-13T07:03:42;10.10;92.60
41756;DHT22;27435;48.480;9.258;2023-01-13T07:06:08;10.10;92.50
41756;DHT22;27435;48.480;9.258;2023-01-13T07:08:33;10.00;93.10
41756;DHT22;27435;48.480;9.258;2023-01-13T07:11:01;10.10;92.70
41756;DHT22;27435;48.480;9.258;2023-01-13T07:13:26;10.00;92.80
41756;DHT22;27435;48.480;9.258;2023-01-13T07:16:11;10.10;92.70
41756;DHT22;27435;48.480;9.258;2023-01-13T07:18:37;10.10;92.80
41756;DHT22;27435;48.480;9.258;2023-01-13T07:21:05;10.00;92.90
41756;DHT22;27435;48.480;9.258;2023-01-13T07:23:33;10.00;92.60
41756;DHT22;27435;48.480;9.258;2023-01-13T07:26:00;10.10;92.50
41756;DHT22;27435;48.480;9.258;2023-01-13T07:28:27;10.10;92.60
41756;DHT22;27435;48.480;9.258;2023-01-13T07:30:53;10.10;92.50
41756;DHT22;27435;48.480;9.258;2023-01-13T07:33:19;10.20;92.30
41756;DHT22;27435;48.480;9.258;2023-01-13T07:35:46;10.10;92.40
41756;DHT22;27435;48.480;9.258;2023-01-13T07:38:12;10.20;92.40
41756;DHT22;27435;48.480;9.258;2023-01-13T07:40:39;10.20;91.90
41756;DHT22;27435;48.480;9.258;2023-01-13T07:43:05;10.30;92.10
41756;DHT22;27435;48.480;9.258;2023-01-13T07:45:54;10.20;92.00
41756;DHT22;27435;48.480;9.258;2023-01-13T07:48:20;10.20;91.90
41756;DHT22;27435;48.480;9.258;2023-01-13T07:50:45;10.20;92.00
41756;DHT22;27435;48.480;9.258;2023-01-13T07:53:11;10.30;91.90
41756;DHT22;27435;48.480;9.258;2023-01-13T07:55:40;10.30;91.10
41756;DHT22;27435;48.480;9.258;2023-01-13T07:58:07;10.30;91.30
41756;DHT22;27435;48.480;9.258;2023-01-13T08:00:34;10.30;91.20
41756;DHT22;27435;48.480;9.258;2023-01-13T08:02:59;10.40;91.40
41756;DHT22;27435;48.480;9.258;2023-01-13T08:05:25;10.40;91.20
41756;DHT22;27435;48.480;9.258;2023-01-13T08:07:51;10.40;91.00
41756;DHT22;27435;48.480;9.258;2023-01-13T08:10:17;10.40;91.10
41756;DHT22;27435;48.480;9.258;2023-01-13T08:12:42;10.40;91.00
41756;DHT22;27435;48.480;9.258;2023-01-13T08:15:30;10.50;91.10
41756;DHT22;27435;48.480;9.258;2023-01-13T08:17:56;10.60;90.70
41756;DHT22;27435;48.480;9.258;2023-01-13T08:20:24;10.60;90.70
41756;DHT22;27435;48.480;9.258;2023-01-13T08:22:50;10.50;90.70
41756;DHT22;27435;48.480;9.258;2023-01-13T08:25:15;10.50;91.10
41756;DHT22;27435;48.480;9.258;2023-01-13T08:27:41;10.60;91.00
41756;DHT22;27435;48.480;9.258;2023-01-13T08:30:08;10.60;90.80
41756;DHT22;27435;48.480;9.258;2023-01-13T08:32:33;10.60;90.80
41756;DHT22;27435;48.480;9.258;2023-01-13T08:34:59;10.60;90.60
41756;DHT22;27435;48.480;9.258;2023-01-13T08:37:25;10.60;90.80
41756;DHT22;27435;48.480;9.258;2023-01-13T08:39:50;10.60;90.80
41756;DHT22;27435;48.480;9.258;2023-01-13T08:42:16;10.70;91.40
41756;DHT22;27435;48.480;9.258;2023-01-13T08:44:42;10.80;91.60
41756;DHT22;27435;48.480;9.258;2023-01-13T08:47:07;10.80;91.70
41756;DHT22;27435;48.480;9.258;2023-01-13T08:49:33;10.70;91.90
41756;DHT22;27435;48.480;9.258;2023-01-13T08:51:59;10.70;91.60
41756;DHT22;27435;48.480;9.258;2023-01-13T08:54:24;10.80;91.70
41756;DHT22;27435;48.480;9.258;2023-01-13T08:56:53;10.90;91.20
41756;DHT22;27435;48.480;9.258;2023-01-13T08:59:19;10.80;92.30
41756;DHT22;27435;48.480;9.258;2023-01-13T09:01:45;10.70;94.70
41756;DHT22;27435;48.480;9.258;2023-01-13T09:04:19;10.50;95.50
41756;DHT22;27435;48.480;9.258;2023-01-13T09:06:46;10.50;95.00
41756;DHT22;27435;48.480;9.258;2023-01-13T09:09:12;10.40;94.90
41756;DHT22;27435;48.480;9.258;2023-01-13T09:11:41;10.50;94.70
41756;DHT22;27435;48.480;9.258;2023-01-13T09:14:39;10.60;94.50
41756;DHT22;27435;48.480;9.258;2023-01-13T09:17:05;10.60;94.40
41756;DHT22;27435;48.480;9.258;2023-01-13T09:19:32;10.60;94.10
41756;DHT22;27435;48.480;9.258;2023-01-13T09:21:58;10.60;93.50
41756;DHT22;27435;48.480;9.258;2023-01-13T09:24:24;10.60;93.60
41756;DHT22;27435;48.480;9.258;2023-01-13T09:26:50;10.60;93.80
41756;DHT22;27435;48.480;9.258;2023-01-13T09:29:16;10.70;93.70
41756;DHT22;27435;48.480;9.258;2023-01-13T09:31:42;10.60;93.50
41756;DHT22;27435;48.480;9.258;2023-01-13T09:34:13;10.60;93.70
41756;DHT22;27435;48.480;9.258;2023-01-13T09:36:57;10.70;93.60
41756;DHT22;27435;48.480;9.258;2023-01-13T09:39:23;10.70;92.60
41756;DHT22;27435;48.480;9.258;2023-01-13T09:41:52;10.60;93.70
41756;DHT22;27435;48.480;9.258;2023-01-13T09:47:31;10.60;93.70
41756;DHT22;27435;48.480;9.258;2023-01-13T09:52:43;10.70;93.70
41756;DHT22;27435;48.480;9.258;2023-01-13T09:55:24;10.70;93.80
41756;DHT22;27435;48.480;9.258;2023-01-13T09:57:51;10.60;94.20
41756;DHT22;27435;48.480;9.258;2023-01-13T10:00:26;10.50;94.60
41756;DHT22;27435;48.480;9.258;2023-01-13T10:08:24;10.60;94.60
41756;DHT22;27435;48.480;9.258;2023-01-13T10:11:36;10.80;94.20
41756;DHT22;27435;48.480;9.258;2023-01-13T10:14:04;10.80;94.10
41756;DHT22;27435;48.480;9.258;2023-01-13T10:17:01;10.60;95.30
41756;DHT22;27435;48.480;9.258;2023-01-13T10:19:43;10.40;97.20
41756;DHT22;27435;48.480;9.258;2023-01-13T10:27:35;9.70;99.00
41756;DHT22;27435;48.480;9.258;2023-01-13T10:32:45;9.70;99.00
41756;DHT22;27435;48.480;9.258;2023-01-13T10:35:11;9.70;99.00
41756;DHT22;27435;48.480;9.258;2023-01-13T10:37:37;9.70;99.00
41756;DHT22;27435;48.480;9.258;2023-01-13T10:40:03;9.70;99.00
41756;DHT22;27435;48.480;9.258;2023-01-13T10:42:29;9.70;99.00
41756;DHT22;27435;48.480;9.258;2023-01-13T10:44:59;9.70;99.00
41756;DHT22;27435;48.480;9.258;2023-01-13T10:47:27;9.60;99.00
41756;DHT22;27435;48.480;9.258;2023-01-13T10:52:40;9.60;99.00
41756;DHT22;27435;48.480;9.258;2023-01-13T10:57:53;9.80;99.00
41756;DHT22;27435;48.480;9.258;2023-01-13T11:00:39;10.20;99.00
41756;DHT22;27435;48.480;9.258;2023-01-13T11:03:14;10.40;99.00
41756;DHT22;27435;48.480;9.258;2023-01-13T11:05:54;10.70;99.00
41756;DHT22;27435;48.480;9.258;2023-01-13T11:08:39;10.80;99.00
41756;DHT22;27435;48.480;9.258;2023-01-13T11:11:24;10.70;97.70
41756;DHT22;27435;48.480;9.258;2023-01-13T11:13:54;10.90;98.80
41756;DHT22;27435;48.480;9.258;2023-01-13T11:16:40;10.90;97.60
41756;DHT22;27435;48.480;9.258;2023-01-13T11:19:14;10.70;94.10
41756;DHT22;27435;48.480;9.258;2023-01-13T11:27:16;10.00;96.40
41756;DHT22;27435;48.480;9.258;2023-01-13T11:30:04;8.40;99.00
41756;DHT22;27435;48.480;9.258;2023-01-13T11:33:16;7.00;99.00
41756;DHT22;27435;48.480;9.258;2023-01-13T11:35:39;5.90;99.00
41756;DHT22;27435;48.480;9.258;2023-01-13T11:38:19;5.70;99.00
41756;DHT22;27435;48.480;9.258;2023-01-13T11:40:55;5.50;99.00
41756;DHT22;27435;48.480;9.258;2023-01-13T11:46:10;5.40;99.00
41756;DHT22;27435;48.480;9.258;2023-01-13T11:48:39;5.40;99.00
41756;DHT22;27435;48.480;9.258;2023-01-13T12:07:19;5.20;99.00
41756;DHT22;27435;48.480;9.258;2023-01-13T12:10:04;5.20;99.00
41756;DHT22;27435;48.480;9.258;2023-01-13T12:13:06;5.30;99.00
41756;DHT22;27435;48.480;9.258;2023-01-13T12:18:20;5.20;99.00
41756;DHT22;27435;48.480;9.258;2023-01-13T12:26:33;5.30;99.00
41756;DHT22;27435;48.480;9.258;2023-01-13T12:29:05;5.40;99.00
41756;DHT22;27435;48.480;9.258;2023-01-13T12:31:34;5.50;99.00
41756;DHT22;27435;48.480;9.258;2023-01-13T12:40:18;5.70;99.00
41756;DHT22;27435;48.480;9.258;2023-01-13T12:43:06;5.80;99.00
41756;DHT22;27435;48.480;9.258;2023-01-13T12:49:04;5.70;99.00
41756;DHT22;27435;48.480;9.258;2023-01-13T12:51:34;5.60;99.00
41756;DHT22;27435;48.480;9.258;2023-01-13T12:54:05;5.80;99.00
41756;DHT22;27435;48.480;9.258;2023-01-13T12:56:48;6.10;99.00
41756;DHT22;27435;48.480;9.258;2023-01-13T13:02:35;6.60;99.00
41756;DHT22;27435;48.480;9.258;2023-01-13T13:04:49;6.80;99.00
41756;DHT22;27435;48.480;9.258;2023-01-13T13:10:17;7.10;99.00
41756;DHT22;27435;48.480;9.258;2023-01-13T13:15:30;7.60;99.00
41756;DHT22;27435;48.480;9.258;2023-01-13T13:31:31;7.50;99.00
41756;DHT22;27435;48.480;9.258;2023-01-13T13:37:06;7.50;99.00
41756;DHT22;27435;48.480;9.258;2023-01-13T13:39:35;7.50;99.00
41756;DHT22;27435;48.480;9.258;2023-01-13T13:42:25;7.70;99.00
41756;DHT22;27435;48.480;9.258;2023-01-13T13:45:23;7.80;99.00
41756;DHT22;27435;48.480;9.258;2023-01-13T13:48:26;7.80;99.00
41756;DHT22;27435;48.480;9.258;2023-01-13T13:50:57;7.90;99.00
41756;DHT22;27435;48.480;9.258;2023-01-13T13:53:33;7.90;99.00
41756;DHT22;27435;48.480;9.258;2023-01-13T13:56:02;7.90;99.00
41756;DHT22;27435;48.480;9.258;2023-01-13T13:58:32;8.00;99.00
41756;DHT22;27435;48.480;9.258;2023-01-13T14:01:03;8.20;97.80
41756;DHT22;27435;48.480;9.258;2023-01-13T14:03:31;8.50;97.80
41756;DHT22;27435;48.480;9.258;2023-01-13T14:06:04;8.70;97.10
41756;DHT22;27435;48.480;9.258;2023-01-13T14:08:39;8.70;94.60
41756;DHT22;27435;48.480;9.258;2023-01-13T14:11:39;8.70;94.60
41756;DHT22;27435;48.480;9.258;2023-01-13T14:14:11;8.60;93.60
41756;DHT22;27435;48.480;9.258;2023-01-13T14:16:39;8.50;94.40
41756;DHT22;27435;48.480;9.258;2023-01-13T14:19:05;8.50;94.50
41756;DHT22;27435;48.480;9.258;2023-01-13T14:21:31;8.50;94.20
41756;DHT22;27435;48.480;9.258;2023-01-13T14:24:01;8.60;94.40
41756;DHT22;27435;48.480;9.258;2023-01-13T14:26:30;8.50;94.20
41756;DHT22;27435;48.480;9.258;2023-01-13T14:28:57;8.40;95.10
41756;DHT22;27435;48.480;9.258;2023-01-13T14:31:24;8.40;95.90
41756;DHT22;27435;48.480;9.258;2023-01-13T14:33:52;8.40;96.20
41756;DHT22;27435;48.480;9.258;2023-01-13T14:36:34;8.50;96.20
41756;DHT22;27435;48.480;9.258;2023-01-13T14:46:47;8.90;95.70
41756;DHT22;27435;48.480;9.258;2023-01-13T14:52:26;8.80;95.30
41756;DHT22;27435;48.480;9.258;2023-01-13T14:57:31;8.50;96.30
41756;DHT22;27435;48.480;9.258;2023-01-13T15:02:44;8.50;97.00
41756;DHT22;27435;48.480;9.258;2023-01-13T15:07:56;8.40;96.60
41756;DHT22;27435;48.480;9.258;2023-01-13T15:10:35;8.50;97.20
41756;DHT22;27435;48.480;9.258;2023-01-13T15:13:05;8.60;96.50
41756;DHT22;27435;48.480;9.258;2023-01-13T15:15:54;8.70;96.20
41756;DHT22;27435;48.480;9.258;2023-01-13T15:18:19;8.70;95.80
41756;DHT22;27435;48.480;9.258;2023-01-13T15:20:50;8.60;95.40
41756;DHT22;27435;48.480;9.258;2023-01-13T15:23:21;8.50;96.60
41756;DHT22;27435;48.480;9.258;2023-01-13T15:25:49;8.50;96.40
41756;DHT22;27435;48.480;9.258;2023-01-13T15:28:20;8.40;96.70
41756;DHT22;27435;48.480;9.258;2023-01-13T15:30:48;8.40;96.80
41756;DHT22;27435;48.480;9.258;2023-01-13T15:33:19;8.30;96.20
41756;DHT22;27435;48.480;9.258;2023-01-13T15:35:52;8.30;96.80
41756;DHT22;27435;48.480;9.258;2023-01-13T15:38:21;8.30;96.30
41756;DHT22;27435;48.480;9.258;2023-01-13T15:40:56;8.30;96.00
41756;DHT22;27435;48.480;9.258;2023-01-13T15:43:24;8.20;95.60
41756;DHT22;27435;48.480;9.258;2023-01-13T15:46:14;8.10;95.80
41756;DHT22;27435;48.480;9.258;2023-01-13T15:49:07;8.00;96.10
41756;DHT22;27435;48.480;9.258;2023-01-13T15:51:42;7.90;96.40
41756;DHT22;27435;48.480;9.258;2023-01-13T15:54:07;7.80;97.00
41756;DHT22;27435;48.480;9.258;2023-01-13T15:56:41;7.80;96.50
41756;DHT22;27435;48.480;9.258;2023-01-13T15:59:23;7.70;96.50
41756;DHT22;27435;48.480;9.258;2023-01-13T16:01:55;7.60;95.80
41756;DHT22;27435;48.480;9.258;2023-01-13T16:04:21;7.50;95.70
41756;DHT22;27435;48.480;9.258;2023-01-13T16:06:56;7.50;96.10
41756;DHT22;27435;48.480;9.258;2023-01-13T16:09:22;7.50;95.90
41756;DHT22;27435;48.480;9.258;2023-01-13T16:11:47;7.40;96.20
41756;DHT22;27435;48.480;9.258;2023-01-13T16:14:13;7.30;96.70
41756;DHT22;27435;48.480;9.258;2023-01-13T16:16:41;7.20;96.90
41756;DHT22;27435;48.480;9.258;2023-01-13T16:19:09;7.30;96.90
41756;DHT22;27435;48.480;9.258;2023-01-13T16:21:39;7.30;97.10
41756;DHT22;27435;48.480;9.258;2023-01-13T16:24:12;7.30;97.60
41756;DHT22;27435;48.480;9.258;2023-01-13T16:26:52;7.30;97.20
41756;DHT22;27435;48.480;9.258;2023-01-13T16:29:26;7.40;97.40
41756;DHT22;27435;48.480;9.258;2023-01-13T16:31:51;7.40;97.20
41756;DHT22;27435;48.480;9.258;2023-01-13T16:34:23;7.40;97.10
41756;DHT22;27435;48.480;9.258;2023-01-13T16:36:52;7.50;96.70
41756;DHT22;27435;48.480;9.258;2023-01-13T16:39:21;7.60;96.50
41756;DHT22;27435;48.480;9.258;2023-01-13T16:41:52;7.70;96.40
41756;DHT22;27435;48.480;9.258;2023-01-13T16:44:23;7.60;97.30
41756;DHT22;27435;48.480;9.258;2023-01-13T16:46:51;7.60;97.00
41756;DHT22;27435;48.480;9.258;2023-01-13T16:49:19;7.40;97.70
41756;DHT22;27435;48.480;9.258;2023-01-13T16:51:47;7.30;97.90
41756;DHT22;27435;48.480;9.258;2023-01-13T16:54:21;7.30;98.10
41756;DHT22;27435;48.480;9.258;2023-01-13T16:56:49;7.10;98.70
41756;DHT22;27435;48.480;9.258;2023-01-13T16:59:20;7.10;98.10
41756;DHT22;27435;48.480;9.258;2023-01-13T17:02:03;7.00;98.60
41756;DHT22;27435;48.480;9.258;2023-01-13T17:04:29;7.10;98.10
41756;DHT22;27435;48.480;9.258;2023-01-13T17:07:05;7.10;98.00
41756;DHT22;27435;48.480;9.258;2023-01-13T17:09:32;7.20;97.60
41756;DHT22;27435;48.480;9.258;2023-01-13T17:11:58;7.20;96.80
41756;DHT22;27435;48.480;9.258;2023-01-13T17:14:24;7.20;96.40
41756;DHT22;27435;48.480;9.258;2023-01-13T17:16:53;7.30;96.10
41756;DHT22;27435;48.480;9.258;2023-01-13T17:19:20;7.40;95.50
41756;DHT22;27435;48.480;9.258;2023-01-13T17:21:46;7.40;95.50
41756;DHT22;27435;48.480;9.258;2023-01-13T17:24:12;7.50;94.80
41756;DHT22;27435;48.480;9.258;2023-01-13T17:26:46;7.60;94.80
41756;DHT22;27435;48.480;9.258;2023-01-13T17:29:19;7.50;94.70
41756;DHT22;27435;48.480;9.258;2023-01-13T17:31:46;7.50;94.90
41756;DHT22;27435;48.480;9.258;2023-01-13T17:34:12;7.50;95.50
41756;DHT22;27435;48.480;9.258;2023-01-13T17:36:38;7.50;98.10
41756;DHT22;27435;48.480;9.258;2023-01-13T17:39:04;7.10;99.00
41756;DHT22;27435;48.480;9.258;2023-01-13T17:41:29;6.60;99.00
41756;DHT22;27435;48.480;9.258;2023-01-13T17:43:55;6.30;99.00
41756;DHT22;27435;48.480;9.258;2023-01-13T17:46:21;6.20;99.00
41756;DHT22;27435;48.480;9.258;2023-01-13T17:48:51;5.90;99.00
41756;DHT22;27435;48.480;9.258;2023-01-13T17:51:18;5.70;99.00
41756;DHT22;27435;48.480;9.258;2023-01-13T17:53:45;5.60;99.00
41756;DHT22;27435;48.480;9.258;2023-01-13T17:56:13;5.60;99.00
41756;DHT22;27435;48.480;9.258;2023-01-13T17:58:39;5.60;99.00
41756;DHT22;27435;48.480;9.258;2023-01-13T18:01:11;5.50;99.00
41756;DHT22;27435;48.480;9.258;2023-01-13T18:03:38;5.40;99.00
41756;DHT22;27435;48.480;9.258;2023-01-13T18:06:10;5.20;99.00
41756;DHT22;27435;48.480;9.258;2023-01-13T18:08:38;5.10;99.00
41756;DHT22;27435;48.480;9.258;2023-01-13T18:11:04;5.00;99.00
41756;DHT22;27435;48.480;9.258;2023-01-13T18:13:32;4.90;99.00